Time;durP1;ratioP1;P1;durP2;ratioP2;P2;SDS_P1;SDS_P2;PMS_P1;PMS_P2;Temp;Humidity;BMP_temperature;BMP_pressure;BME280_temperature;BME280_humidity;BME280_pressure;Samples;Min_cycle;Max_cycle;Signal;HPM_P1;HPM_P2
2023/02/27 00:00:40;;;;;;;20.80;9.57;;;0.70;99.90;;;;;;2702470;39;21662;31
2023/02/27 00:03:14;;;;;;;17.37;7.70;;;0.70;99.90;;;;;;2603694;54;21703;31
2023/02/27 00:05:56;;;;;;;19.20;8.15;;;0.70;99.90;;;;;;2603155;54;20324;31
2023/02/27 00:08:34;;;;;;;18.70;7.35;;;0.70;99.90;;;;;;2603910;54;20038;31
2023/02/27 00:13:44;;;;;;;14.95;6.10;;;0.70;99.90;;;;;;2603374;54;20042;31
2023/02/27 00:16:25;;;;;;;14.60;6.63;;;0.70;99.90;;;;;;2603722;54;20065;31
2023/02/27 00:19:03;;;;;;;13.05;5.65;;;0.70;99.90;;;;;;2603867;54;20093;31
2023/02/27 00:21:43;;;;;;;18.27;6.78;;;0.70;99.90;;;;;;2607838;46;20093;31
2023/02/27 00:24:21;;;;;;;13.77;6.50;;;0.70;99.90;;;;;;2619241;46;20085;31
2023/02/27 00:26:56;;;;;;;13.07;5.80;;;0.70;99.90;;;;;;2603519;54;20113;31
2023/02/27 00:29:35;;;;;;;14.45;6.60;;;0.70;99.90;;;;;;2621800;46;19961;31
2023/02/27 00:32:17;;;;;;;13.60;5.97;;;0.70;99.90;;;;;;2603562;54;20093;31
2023/02/27 00:34:54;;;;;;;17.23;6.35;;;0.70;99.90;;;;;;2603840;54;20871;31
2023/02/27 00:37:33;;;;;;;18.63;5.77;;;0.60;99.90;;;;;;2603348;54;21440;31
2023/02/27 00:40:12;;;;;;;16.42;6.57;;;0.70;99.90;;;;;;2603615;54;20046;31
2023/02/27 00:42:50;;;;;;;12.57;5.67;;;0.60;99.90;;;;;;2603589;54;20034;31
2023/02/27 00:45:26;;;;;;;15.88;6.25;;;0.70;99.90;;;;;;2603616;54;20029;31
2023/02/27 00:48:10;;;;;;;13.35;6.45;;;0.60;99.90;;;;;;2603364;54;20033;31
2023/02/27 00:50:44;;;;;;;15.50;6.40;;;0.60;99.90;;;;;;2622215;46;20053;31
2023/02/27 00:53:23;;;;;;;11.75;6.15;;;0.70;99.90;;;;;;2603382;54;20746;31
2023/02/27 00:58:44;;;;;;;10.60;5.35;;;0.70;99.90;;;;;;2603683;54;20029;31
2023/02/27 01:01:35;;;;;;;15.48;6.35;;;0.60;99.90;;;;;;2702045;39;20564;31
2023/02/27 01:04:14;;;;;;;14.10;5.47;;;0.70;99.90;;;;;;2603515;54;20939;31
2023/02/27 01:06:53;;;;;;;14.70;6.20;;;0.60;99.90;;;;;;2602611;54;20242;31
2023/02/27 01:09:28;;;;;;;9.23;4.95;;;0.60;99.90;;;;;;2603085;54;20682;31
2023/02/27 01:12:10;;;;;;;12.50;5.65;;;0.60;99.90;;;;;;2603390;54;20588;31
2023/02/27 01:14:48;;;;;;;10.18;5.00;;;0.60;99.90;;;;;;2621945;46;20644;31
2023/02/27 01:17:27;;;;;;;13.68;5.28;;;0.60;99.90;;;;;;2602621;54;20038;31
2023/02/27 01:20:09;;;;;;;16.15;6.40;;;0.60;99.90;;;;;;2602717;54;20038;31
2023/02/27 01:22:45;;;;;;;11.95;5.38;;;0.60;99.90;;;;;;2621560;46;20124;31
2023/02/27 01:25:21;;;;;;;12.75;5.00;;;0.50;99.90;;;;;;2701442;39;20536;31
2023/02/27 01:27:57;;;;;;;10.40;4.57;;;0.50;99.90;;;;;;2603205;54;20880;31
2023/02/27 01:30:34;;;;;;;11.48;4.47;;;0.60;99.90;;;;;;2621738;46;20022;31
2023/02/27 01:33:20;;;;;;;14.87;4.90;;;0.50;99.90;;;;;;2602710;54;20787;31
2023/02/27 01:36:03;;;;;;;9.40;4.75;;;0.50;99.90;;;;;;2602870;54;20027;31
2023/02/27 01:38:44;;;;;;;12.68;4.28;;;0.50;99.90;;;;;;2621756;46;20030;31
2023/02/27 01:41:21;;;;;;;11.40;4.47;;;0.50;99.90;;;;;;2606778;46;20030;31
2023/02/27 01:43:58;;;;;;;9.80;4.43;;;0.50;99.90;;;;;;2621989;46;20258;31
2023/02/27 01:46:34;;;;;;;9.00;4.60;;;0.50;99.90;;;;;;2621873;46;20076;31
2023/02/27 01:49:13;;;;;;;14.25;5.78;;;0.50;99.90;;;;;;2603143;54;20041;31
2023/02/27 01:51:53;;;;;;;11.48;4.78;;;0.50;99.90;;;;;;2603460;54;20624;31
2023/02/27 01:57:44;;;;;;;12.90;5.13;;;0.50;99.90;;;;;;2603497;54;20865;31
2023/02/27 02:06:53;;;;;;;13.48;5.20;;;0.40;99.90;;;;;;2602890;54;20038;31
2023/02/27 02:09:46;;;;;;;11.50;5.20;;;0.40;99.90;;;;;;2603172;54;20056;31
2023/02/27 02:12:31;;;;;;;8.97;4.60;;;0.50;99.90;;;;;;2603180;54;20027;31
2023/02/27 02:15:17;;;;;;;12.07;5.03;;;0.40;99.90;;;;;;2603282;54;20072;31
2023/02/27 02:18:04;;;;;;;14.73;4.75;;;0.40;99.90;;;;;;2603365;54;20656;31
2023/02/27 02:21:13;;;;;;;13.05;4.75;;;0.40;99.90;;;;;;2621458;46;20099;31
2023/02/27 02:24:03;;;;;;;15.93;4.50;;;0.40;99.90;;;;;;2603283;54;20864;31
2023/02/27 02:27:02;;;;;;;10.00;4.70;;;0.40;99.90;;;;;;2621901;46;20262;31
2023/02/27 02:30:19;;;;;;;13.80;5.18;;;0.50;99.90;;;;;;2603046;54;20839;31
2023/02/27 02:33:20;;;;;;;12.40;5.60;;;0.40;99.90;;;;;;2621595;46;20104;31
2023/02/27 02:36:18;;;;;;;10.10;4.60;;;0.40;99.90;;;;;;2621515;46;20971;31
2023/02/27 02:38:58;;;;;;;12.10;4.43;;;0.40;99.90;;;;;;2603260;54;20027;31
2023/02/27 02:41:46;;;;;;;12.13;5.13;;;0.40;99.90;;;;;;2621857;46;20763;31
2023/02/27 02:44:27;;;;;;;12.85;5.75;;;0.30;99.90;;;;;;2621546;46;20034;31
2023/02/27 02:47:06;;;;;;;16.77;6.13;;;0.30;99.90;;;;;;2603511;54;20030;31
2023/02/27 02:49:43;;;;;;;13.85;5.50;;;0.30;99.90;;;;;;2603156;54;20037;31
2023/02/27 02:52:27;;;;;;;12.80;5.25;;;0.30;99.90;;;;;;2602733;54;20050;31
2023/02/27 02:55:05;;;;;;;16.10;6.43;;;0.30;99.90;;;;;;2603175;54;20980;31
2023/02/27 02:57:45;;;;;;;11.30;4.75;;;0.30;99.90;;;;;;2621627;46;20242;31
2023/02/27 03:00:27;;;;;;;12.55;5.55;;;0.30;99.90;;;;;;2603107;54;20855;31
2023/02/27 03:03:07;;;;;;;12.05;6.40;;;0.30;99.90;;;;;;2602965;54;20805;31
2023/02/27 03:05:44;;;;;;;14.40;6.10;;;0.30;99.90;;;;;;2700818;39;21594;31
2023/02/27 03:08:21;;;;;;;10.13;4.90;;;0.30;99.90;;;;;;2602975;54;20935;31
2023/02/27 03:10:59;;;;;;;10.70;4.90;;;0.30;99.90;;;;;;2603013;54;20030;31
2023/02/27 03:13:34;;;;;;;13.52;5.45;;;0.30;99.90;;;;;;2602941;54;20022;31
2023/02/27 03:16:17;;;;;;;8.65;3.70;;;0.30;99.90;;;;;;2602949;54;20030;31
2023/02/27 03:18:54;;;;;;;7.72;3.92;;;0.30;99.90;;;;;;2621509;47;20042;31
2023/02/27 03:21:35;;;;;;;11.07;3.90;;;0.40;99.90;;;;;;2701383;39;21495;31
2023/02/27 03:24:12;;;;;;;9.13;4.00;;;0.30;99.90;;;;;;2603135;54;20880;31
2023/02/27 03:26:47;;;;;;;9.68;3.58;;;0.40;99.90;;;;;;2602217;54;20254;31
2023/02/27 03:29:24;;;;;;;;;;;0.40;99.90;;;;;;2603084;54;20023;31
2023/02/27 03:32:06;;;;;;;8.30;3.00;;;0.30;99.90;;;;;;2606556;47;20712;31
2023/02/27 03:34:43;;;;;;;10.25;3.95;;;0.40;99.90;;;;;;2602920;54;20774;31
2023/02/27 03:37:26;;;;;;;11.77;3.30;;;0.40;99.90;;;;;;2791394;31;21524;31
2023/02/27 03:40:05;;;;;;;9.40;2.97;;;0.40;99.90;;;;;;2602738;54;20752;31
2023/02/27 03:42:40;;;;;;;6.78;3.05;;;0.40;99.90;;;;;;2610659;47;22362;31
2023/02/27 03:45:44;;;;;;;10.23;3.33;;;0.40;99.90;;;;;;2602834;54;20026;31
2023/02/27 03:48:26;;;;;;;7.75;2.85;;;0.40;99.90;;;;;;2603254;54;20052;31
2023/02/27 03:51:01;;;;;;;7.13;3.10;;;0.30;99.90;;;;;;2603780;54;20656;31
2023/02/27 03:53:40;;;;;;;7.28;2.75;;;0.40;99.90;;;;;;2603854;54;20033;31
2023/02/27 03:56:20;;;;;;;8.82;2.80;;;0.30;99.90;;;;;;2603850;54;19934;31
2023/02/27 03:58:57;;;;;;;7.00;2.70;;;0.30;99.90;;;;;;2603711;54;20042;31
2023/02/27 04:01:39;;;;;;;6.88;3.00;;;0.30;99.90;;;;;;2603627;54;20928;31
2023/02/27 04:04:26;;;;;;;9.03;3.97;;;0.40;99.90;;;;;;2603629;54;20037;31
2023/02/27 04:07:31;;;;;;;7.70;3.13;;;0.30;99.90;;;;;;2603912;54;20937;31
2023/02/27 04:10:07;;;;;;;7.35;2.72;;;0.30;99.90;;;;;;2603583;54;20745;31
2023/02/27 04:13:01;;;;;;;8.85;3.40;;;0.30;99.90;;;;;;2603801;54;20837;31
2023/02/27 04:15:41;;;;;;;10.07;3.20;;;0.30;99.90;;;;;;2603625;54;20105;31
2023/02/27 04:18:21;;;;;;;7.15;3.22;;;0.30;99.90;;;;;;2603742;54;20920;31
2023/02/27 04:21:02;;;;;;;10.40;3.30;;;0.30;99.90;;;;;;2603743;54;20101;31
2023/02/27 04:23:39;;;;;;;9.57;3.20;;;0.30;99.90;;;;;;2622158;46;20049;31
2023/02/27 04:26:21;;;;;;;10.77;3.55;;;0.30;99.90;;;;;;2603715;54;20038;31
2023/02/27 04:31:55;;;;;;;;;;;0.30;99.90;;;;;;2603910;54;20067;31
2023/02/27 04:34:33;;;;;;;8.73;2.73;;;0.30;99.90;;;;;;2621871;46;20815;31
2023/02/27 04:37:13;;;;;;;5.78;2.95;;;0.40;99.90;;;;;;2603680;54;20104;31
2023/02/27 04:39:52;;;;;;;6.88;3.00;;;0.20;99.90;;;;;;2603536;54;21714;31
2023/02/27 04:42:29;;;;;;;7.75;3.38;;;0.20;99.90;;;;;;2603307;54;20778;31
2023/02/27 04:48:15;;;;;;;7.93;3.13;;;0.20;99.90;;;;;;2701401;39;20577;31
2023/02/27 04:51:01;;;;;;;12.35;4.10;;;0.20;99.90;;;;;;2602900;54;20857;31
2023/02/27 04:53:45;;;;;;;9.07;3.15;;;0.20;99.90;;;;;;2603477;54;20681;31
2023/02/27 04:59:26;;;;;;;9.65;3.60;;;0.20;99.90;;;;;;2701878;39;20538;31
2023/02/27 05:05:01;;;;;;;11.25;3.88;;;0.20;99.90;;;;;;2603410;54;20037;31
2023/02/27 05:13:57;;;;;;;10.60;3.67;;;0.20;99.90;;;;;;2602705;54;20883;31
2023/02/27 05:22:36;;;;;;;8.82;3.90;;;0.10;99.90;;;;;;2602243;54;20038;31
2023/02/27 05:25:13;;;;;;;11.35;4.05;;;0.20;99.90;;;;;;2621945;46;20029;31
2023/02/27 05:27:52;;;;;;;8.30;3.80;;;0.10;99.90;;;;;;2603452;54;20602;31
2023/02/27 05:30:34;;;;;;;11.02;4.20;;;0.10;99.90;;;;;;2621738;46;20108;31
2023/02/27 05:33:13;;;;;;;10.63;4.20;;;0.10;99.90;;;;;;2603571;54;20034;31
2023/02/27 05:35:56;;;;;;;9.20;3.70;;;0.10;99.90;;;;;;2602565;54;20085;31
2023/02/27 05:38:36;;;;;;;12.50;4.15;;;0.10;99.90;;;;;;2603241;54;20079;31
2023/02/27 05:41:16;;;;;;;9.15;4.47;;;0.10;99.90;;;;;;2603263;54;20031;31
2023/02/27 05:43:56;;;;;;;13.50;4.55;;;0.10;99.90;;;;;;2603533;54;20034;31
2023/02/27 05:46:32;;;;;;;8.82;3.90;;;0.10;99.90;;;;;;2603201;54;20034;31
2023/02/27 05:49:26;;;;;;;9.80;3.88;;;0.10;99.90;;;;;;2603496;54;20038;31
2023/02/27 05:52:11;;;;;;;9.88;4.15;;;0.10;99.90;;;;;;2603338;54;20164;31
2023/02/27 05:57:26;;;;;;;8.00;3.80;;;0.10;99.90;;;;;;2603336;54;20112;31
2023/02/27 06:00:09;;;;;;;7.57;3.53;;;0.10;99.90;;;;;;2621771;46;20622;31
2023/02/27 06:02:47;;;;;;;8.95;4.45;;;0.20;99.90;;;;;;2603244;54;20026;31
2023/02/27 06:05:24;;;;;;;8.35;3.17;;;0.20;99.90;;;;;;2603533;54;20034;31
2023/02/27 06:10:50;;;;;;;8.48;3.03;;;0.20;99.90;;;;;;2602211;54;20970;31
2023/02/27 06:13:28;;;;;;;8.20;3.40;;;0.20;99.90;;;;;;2602990;54;20941;31
2023/02/27 06:16:08;;;;;;;8.30;3.80;;;0.20;99.90;;;;;;2621531;46;20109;31
2023/02/27 06:18:49;;;;;;;11.13;5.63;;;0.20;99.90;;;;;;2603234;54;20046;31
2023/02/27 06:21:29;;;;;;;9.23;4.85;;;0.10;99.90;;;;;;2621544;46;20081;31
2023/02/27 06:24:03;;;;;;;13.20;5.28;;;0.10;99.90;;;;;;2621678;46;20026;31
2023/02/27 06:26:42;;;;;;;11.90;5.33;;;0.10;99.90;;;;;;2621164;46;20042;31
2023/02/27 06:29:19;;;;;;;14.95;4.68;;;0.10;99.90;;;;;;2701045;39;21589;31
2023/02/27 06:31:55;;;;;;;9.18;4.05;;;0.20;99.90;;;;;;2603401;54;20026;31
2023/02/27 06:34:32;;;;;;;12.45;4.60;;;0.10;99.90;;;;;;2764612;31;20030;31
2023/02/27 06:37:08;;;;;;;9.40;3.77;;;0.10;99.90;;;;;;2603426;54;19935;31
2023/02/27 06:39:47;;;;;;;8.63;3.35;;;0.20;99.90;;;;;;2603057;54;20254;31
2023/02/27 06:42:25;;;;;;;12.63;3.55;;;0.10;99.90;;;;;;2621814;46;20056;31
2023/02/27 06:45:18;;;;;;;8.57;5.18;;;0.20;99.90;;;;;;2613396;46;20065;31
2023/02/27 06:47:55;;;;;;;11.15;3.83;;;0.20;99.90;;;;;;2603134;54;20029;31
2023/02/27 06:50:34;;;;;;;8.85;4.38;;;0.20;99.90;;;;;;2603058;54;20030;31
2023/02/27 06:53:13;;;;;;;7.32;3.63;;;0.30;99.90;;;;;;2621421;46;20863;31
2023/02/27 06:55:51;;;;;;;9.05;3.80;;;0.30;99.90;;;;;;2602327;54;20634;31
2023/02/27 06:58:30;;;;;;;8.45;4.30;;;0.30;99.90;;;;;;2701732;39;21675;31
2023/02/27 07:01:12;;;;;;;8.73;4.18;;;0.30;99.90;;;;;;2607655;46;21340;31
2023/02/27 07:03:55;;;;;;;6.70;3.75;;;0.30;99.90;;;;;;2603193;54;20895;31
2023/02/27 07:06:38;;;;;;;7.05;3.35;;;0.30;99.90;;;;;;2603244;54;20112;31
2023/02/27 07:09:34;;;;;;;7.97;3.73;;;0.30;99.90;;;;;;2603081;54;20027;31
2023/02/27 07:12:21;;;;;;;8.95;4.40;;;0.40;99.90;;;;;;2621516;47;20294;31
2023/02/27 07:15:00;;;;;;;8.43;4.28;;;0.40;99.90;;;;;;2603100;54;20089;31
2023/02/27 07:17:40;;;;;;;9.23;4.10;;;0.30;99.90;;;;;;2621467;47;20119;31
2023/02/27 07:20:24;;;;;;;8.32;3.78;;;0.40;99.90;;;;;;2603131;54;20883;31
2023/02/27 07:23:02;;;;;;;7.15;3.50;;;0.40;99.90;;;;;;2603125;54;20030;31
2023/02/27 07:25:38;;;;;;;7.70;4.05;;;0.50;99.90;;;;;;2603784;54;20029;31
2023/02/27 07:28:14;;;;;;;6.33;3.30;;;0.50;99.90;;;;;;2773941;31;20622;31
2023/02/27 07:30:56;;;;;;;9.35;4.70;;;0.50;99.90;;;;;;2603744;54;21071;31
2023/02/27 07:33:33;;;;;;;12.25;4.53;;;0.50;99.90;;;;;;2603924;54;20851;31
2023/02/27 07:36:14;;;;;;;7.07;3.92;;;0.60;99.90;;;;;;2603646;54;20030;31
2023/02/27 07:38:51;;;;;;;8.53;3.43;;;0.60;99.90;;;;;;2622080;46;20033;31
2023/02/27 07:41:26;;;;;;;7.72;3.25;;;0.60;99.90;;;;;;2617124;46;20026;31
2023/02/27 07:44:08;;;;;;;9.60;3.75;;;0.70;99.90;;;;;;2603776;54;20060;31
2023/02/27 07:46:46;;;;;;;;;;;0.70;99.90;;;;;;2603888;54;20033;31
2023/02/27 07:49:24;;;;;;;8.60;3.53;;;0.70;99.90;;;;;;2603723;54;19935;31
2023/02/27 07:52:03;;;;;;;11.67;4.13;;;0.70;99.90;;;;;;2603682;54;20022;31
2023/02/27 07:54:39;;;;;;;7.22;3.53;;;0.80;99.90;;;;;;2603651;54;20288;31
2023/02/27 07:57:15;;;;;;;8.00;3.57;;;0.80;99.90;;;;;;2603534;54;20813;31
2023/02/27 07:59:50;;;;;;;9.00;4.30;;;0.80;99.90;;;;;;2602923;54;20892;31
2023/02/27 08:02:31;;;;;;;8.57;4.60;;;0.80;99.90;;;;;;2619605;46;20320;31
2023/02/27 08:05:12;;;;;;;8.70;4.60;;;0.80;99.90;;;;;;2603644;54;20033;31
2023/02/27 08:07:49;;;;;;;7.35;4.30;;;0.80;99.90;;;;;;2603751;54;20030;31
2023/02/27 08:10:28;;;;;;;7.65;3.72;;;0.90;99.90;;;;;;2702318;39;20479;31
2023/02/27 08:15:41;;;;;;;11.25;4.35;;;1.00;99.90;;;;;;2602889;54;20116;31
2023/02/27 08:18:23;;;;;;;8.80;4.85;;;1.00;99.90;;;;;;2603036;54;22347;31
2023/02/27 08:21:03;;;;;;;9.65;4.53;;;1.00;99.90;;;;;;2603837;54;20833;31
2023/02/27 08:23:40;;;;;;;8.40;4.05;;;1.10;99.90;;;;;;2603870;54;20038;31
2023/02/27 08:26:18;;;;;;;6.50;3.42;;;1.20;99.90;;;;;;2622221;46;20627;31
2023/02/27 08:28:56;;;;;;;6.85;3.65;;;1.30;99.90;;;;;;2603883;54;20093;31
2023/02/27 08:31:36;;;;;;;5.80;3.20;;;1.30;99.90;;;;;;2603500;54;20038;31
2023/02/27 08:34:16;;;;;;;6.60;3.53;;;1.30;99.90;;;;;;2603307;54;20030;31
2023/02/27 08:36:54;;;;;;;12.75;4.38;;;1.40;99.90;;;;;;2603706;54;20786;31
2023/02/27 08:39:34;;;;;;;6.55;3.13;;;1.40;99.90;;;;;;2603700;54;20027;31
2023/02/27 08:44:49;;;;;;;7.82;2.97;;;1.70;99.90;;;;;;2603543;54;20787;31
2023/02/27 08:47:27;;;;;;;7.97;2.83;;;1.70;99.90;;;;;;2603683;54;20756;31
2023/02/27 08:50:08;;;;;;;9.20;4.13;;;1.70;99.90;;;;;;2603539;54;20778;31
2023/02/27 08:52:44;;;;;;;6.55;3.28;;;1.80;99.90;;;;;;2621974;46;20026;31
2023/02/27 08:55:20;;;;;;;12.55;4.15;;;1.80;99.90;;;;;;2702167;39;20462;31
2023/02/27 08:57:55;;;;;;;6.03;3.15;;;1.90;99.90;;;;;;2603497;54;20038;31
2023/02/27 09:00:31;;;;;;;10.55;4.53;;;2.00;99.90;;;;;;2603642;54;20030;31
2023/02/27 09:03:06;;;;;;;11.80;4.20;;;2.00;99.90;;;;;;2602748;54;20030;31
2023/02/27 09:05:45;;;;;;;11.87;4.10;;;2.00;99.90;;;;;;2621770;46;21084;31
2023/02/27 09:08:22;;;;;;;6.80;3.10;;;2.10;99.90;;;;;;2701940;39;21892;31
2023/02/27 09:10:59;;;;;;;11.65;4.55;;;2.10;99.90;;;;;;2603492;54;20091;31
2023/02/27 09:13:36;;;;;;;10.50;4.25;;;2.20;99.90;;;;;;2603539;54;20786;31
2023/02/27 09:16:12;;;;;;;9.27;4.23;;;2.20;99.90;;;;;;2621599;46;20907;31
2023/02/27 09:18:49;;;;;;;10.10;4.10;;;2.20;99.90;;;;;;2603427;54;20344;31
2023/02/27 09:21:33;;;;;;;9.18;3.55;;;2.30;99.90;;;;;;2603422;54;20112;31
2023/02/27 09:26:56;;;;;;;9.60;4.72;;;2.50;99.90;;;;;;2603410;54;19965;31
2023/02/27 09:29:32;;;;;;;7.77;3.87;;;2.60;99.90;;;;;;2720534;39;20555;31
2023/02/27 09:32:11;;;;;;;11.13;4.80;;;2.60;99.90;;;;;;2603385;54;20296;31
2023/02/27 09:34:47;;;;;;;13.70;4.43;;;2.60;99.90;;;;;;2603526;54;20787;31
2023/02/27 09:37:30;;;;;;;8.10;4.35;;;2.80;99.90;;;;;;2603540;54;20031;31
2023/02/27 09:40:08;;;;;;;11.17;3.73;;;2.80;99.90;;;;;;2603194;54;20030;31
2023/02/27 09:42:50;;;;;;;5.85;3.45;;;2.80;99.90;;;;;;2603259;54;20030;31
2023/02/27 09:45:29;;;;;;;10.97;3.63;;;2.90;99.90;;;;;;2621788;46;20882;31
2023/02/27 09:48:08;;;;;;;7.80;3.30;;;3.00;99.90;;;;;;2611638;46;20575;31
2023/02/27 09:50:48;;;;;;;37.17;15.90;;;3.00;99.90;;;;;;2602471;54;20008;31
2023/02/27 09:53:34;;;;;;;7.10;3.70;;;3.00;99.90;;;;;;2612097;46;20061;31
2023/02/27 09:56:15;;;;;;;7.55;3.50;;;3.10;99.90;;;;;;2602437;54;20112;31
2023/02/27 09:58:56;;;;;;;5.77;2.87;;;3.20;99.90;;;;;;2603153;54;20031;31
2023/02/27 10:01:30;;;;;;;8.15;3.30;;;3.30;99.90;;;;;;2621658;46;20037;31
2023/02/27 10:04:34;;;;;;;5.97;3.27;;;3.40;99.90;;;;;;2602702;54;20042;31
2023/02/27 10:10:21;;;;;;;;;;;3.60;99.90;;;;;;2603598;54;20026;31
2023/02/27 10:13:08;;;;;;;7.18;3.65;;;3.60;99.90;;;;;;2621836;46;19934;31
2023/02/27 10:18:50;;;;;;;6.65;3.80;;;3.60;99.90;;;;;;2602440;54;20918;31
2023/02/27 10:24:25;;;;;;;7.45;4.93;;;3.70;99.90;;;;;;2603254;54;20876;31
2023/02/27 10:29:56;;;;;;;9.73;3.88;;;3.90;99.90;;;;;;2602380;54;20914;31
2023/02/27 10:35:35;;;;;;;5.13;3.00;;;4.00;99.90;;;;;;2602419;54;20914;31
2023/02/27 10:41:23;;;;;;;10.48;4.60;;;4.10;99.90;;;;;;2602775;54;19947;31
2023/02/27 10:44:06;;;;;;;9.35;4.95;;;4.20;99.90;;;;;;2602482;54;20670;31
2023/02/27 10:46:47;;;;;;;8.88;4.25;;;4.30;99.90;;;;;;2603074;54;20878;31
2023/02/27 10:49:28;;;;;;;7.93;3.67;;;4.30;99.90;;;;;;2602852;54;20915;31
2023/02/27 10:52:13;;;;;;;7.90;3.55;;;4.40;99.90;;;;;;2603260;54;20030;31
2023/02/27 10:54:52;;;;;;;13.93;4.90;;;4.40;99.90;;;;;;2603217;54;20074;31
2023/02/27 10:57:34;;;;;;;8.05;3.70;;;4.50;99.90;;;;;;2621569;46;20030;31
2023/02/27 11:00:27;;;;;;;6.28;3.55;;;4.50;99.90;;;;;;2603189;54;20053;31
2023/02/27 11:03:08;;;;;;;10.10;6.25;;;4.50;99.90;;;;;;2603208;54;20026;31
2023/02/27 11:05:50;;;;;;;5.70;2.87;;;4.40;99.90;;;;;;2621374;47;20156;31
2023/02/27 11:11:03;;;;;;;6.15;3.45;;;4.30;99.90;;;;;;2603218;54;20852;31
2023/02/27 11:13:40;;;;;;;5.95;2.97;;;4.30;99.90;;;;;;2603050;54;20243;31
2023/02/27 11:19:16;;;;;;;3.70;1.80;;;4.30;99.90;;;;;;2602993;54;20027;31
2023/02/27 11:22:05;;;;;;;5.82;2.45;;;4.30;99.90;;;;;;2602869;54;20968;31
2023/02/27 11:24:45;;;;;;;6.13;2.97;;;4.40;99.90;;;;;;2603103;54;20034;31
2023/02/27 11:27:25;;;;;;;4.85;2.47;;;4.50;99.90;;;;;;2602127;54;20022;31
2023/02/27 11:30:02;;;;;;;6.70;4.00;;;4.40;99.90;;;;;;2602400;54;20876;31
2023/02/27 11:32:39;;;;;;;5.05;1.70;;;4.40;99.90;;;;;;2602158;54;20268;31
2023/02/27 11:35:26;;;;;;;4.65;2.30;;;4.40;99.90;;;;;;2603125;54;20820;31
2023/02/27 11:38:06;;;;;;;7.13;2.55;;;4.40;99.90;;;;;;2603158;54;20033;31
2023/02/27 11:40:51;;;;;;;3.95;1.88;;;4.40;99.90;;;;;;2608619;47;20034;31
2023/02/27 11:43:27;;;;;;;5.40;2.30;;;4.40;99.90;;;;;;2701296;39;20613;31
2023/02/27 11:46:06;;;;;;;5.65;2.22;;;4.40;99.90;;;;;;2602955;54;20030;31
2023/02/27 11:49:09;;;;;;;4.13;2.40;;;4.30;99.90;;;;;;2602867;54;20046;31
2023/02/27 11:51:54;;;;;;;6.75;2.00;;;4.20;99.90;;;;;;2603131;54;20038;31
2023/02/27 11:54:37;;;;;;;5.10;2.25;;;4.10;99.90;;;;;;2602857;54;20052;31
2023/02/27 12:00:20;;;;;;;9.07;3.67;;;3.90;99.90;;;;;;2602962;54;20026;31
2023/02/27 12:03:00;;;;;;;8.35;3.97;;;3.80;99.90;;;;;;2602852;54;20056;31
2023/02/27 12:08:34;;;;;;;7.65;3.10;;;3.70;99.90;;;;;;2602728;54;20026;31
2023/02/27 12:11:19;;;;;;;6.53;3.17;;;3.60;99.90;;;;;;2603554;54;20053;31
2023/02/27 12:14:00;;;;;;;5.30;3.25;;;3.60;99.90;;;;;;2603718;54;20030;31
2023/02/27 12:16:42;;;;;;;6.65;3.42;;;3.50;99.90;;;;;;2602760;54;20926;31
2023/02/27 12:19:21;;;;;;;6.38;3.90;;;3.50;99.90;;;;;;2603439;54;20023;31
2023/02/27 12:22:00;;;;;;;9.55;5.32;;;3.40;99.90;;;;;;2603660;54;20707;31
2023/02/27 12:24:43;;;;;;;6.93;3.30;;;3.30;99.90;;;;;;2603538;54;20857;31
2023/02/27 12:27:23;;;;;;;6.90;3.80;;;3.30;99.90;;;;;;2603070;54;20050;31
2023/02/27 12:30:03;;;;;;;8.05;4.65;;;3.30;99.90;;;;;;2603596;54;20049;31
2023/02/27 12:32:41;;;;;;;9.20;4.40;;;3.30;99.90;;;;;;2603530;54;20031;31
2023/02/27 12:35:30;;;;;;;7.70;3.67;;;3.20;99.90;;;;;;2603663;54;20026;31
2023/02/27 12:38:07;;;;;;;13.05;5.60;;;3.10;99.90;;;;;;2622383;46;20031;31
2023/02/27 12:40:46;;;;;;;9.80;5.60;;;3.10;99.90;;;;;;2603572;54;20026;31
2023/02/27 12:43:29;;;;;;;11.47;6.20;;;3.10;99.90;;;;;;2603416;54;20026;31
2023/02/27 12:46:22;;;;;;;14.20;5.80;;;3.00;99.90;;;;;;2622056;46;20877;31
2023/02/27 12:49:16;;;;;;;14.70;5.32;;;3.00;99.90;;;;;;2622015;46;20305;31
2023/02/27 12:52:06;;;;;;;11.27;5.27;;;3.00;99.90;;;;;;2603443;54;20860;31
2023/02/27 12:54:53;;;;;;;15.00;6.15;;;3.00;99.90;;;;;;2603620;54;20973;31
2023/02/27 13:00:24;;;;;;;21.67;9.45;;;2.90;99.90;;;;;;2603634;54;20234;31
2023/02/27 13:03:06;;;;;;;16.33;7.70;;;2.90;99.90;;;;;;2622062;46;20108;31
2023/02/27 13:05:45;;;;;;;20.67;8.17;;;2.90;99.90;;;;;;2603539;54;20919;31
2023/02/27 13:08:41;;;;;;;11.88;3.63;;;3.00;99.90;;;;;;2603376;54;20309;31
2023/02/27 13:11:26;;;;;;;7.78;3.83;;;3.00;99.90;;;;;;2621872;46;20061;31
2023/02/27 14:19:55;;;;;;;10.77;5.65;;;3.20;99.90;;;;;;2603501;46;20087;31
2023/02/27 14:31:30;;;;;;;9.73;5.70;;;3.20;99.90;;;;;;2601200;54;20093;31
2023/02/27 14:37:22;;;;;;;24.10;13.45;;;3.10;99.90;;;;;;2926321;46;20022;31
2023/02/27 16:18:50;;;;;;;136.35;51.05;;;2.40;99.90;;;;;;2602698;54;20101;31
2023/02/27 16:21:32;;;;;;;39.43;18.87;;;2.40;99.90;;;;;;2621261;46;20057;31
2023/02/27 16:24:37;;;;;;;23.48;10.80;;;2.30;99.90;;;;;;2602545;54;20022;31
2023/02/27 16:33:22;;;;;;;16.77;8.20;;;2.40;99.90;;;;;;2611305;54;20030;31
2023/02/27 16:36:22;;;;;;;19.40;9.33;;;2.50;99.90;;;;;;2603512;54;20081;31
2023/02/27 16:39:04;;;;;;;22.52;12.45;;;2.50;99.90;;;;;;2603338;54;20254;31
2023/02/27 16:44:14;;;;;;;22.85;12.65;;;2.50;99.90;;;;;;2701233;39;20273;31
2023/02/27 16:46:51;;;;;;;40.45;21.45;;;2.50;99.90;;;;;;2603767;54;20109;31
2023/02/27 16:49:30;;;;;;;36.47;21.30;;;2.40;99.90;;;;;;2603610;54;20093;31
2023/02/27 16:52:08;;;;;;;43.25;23.38;;;2.50;99.90;;;;;;2603642;54;20258;31
2023/02/27 16:54:47;;;;;;;48.20;28.25;;;2.50;99.90;;;;;;2603068;54;20824;31
2023/02/27 16:57:26;;;;;;;39.35;21.77;;;2.50;99.90;;;;;;2603473;54;20814;31
2023/02/27 17:00:04;;;;;;;71.13;37.03;;;2.50;99.90;;;;;;2603556;54;20110;31
2023/02/27 17:02:42;;;;;;;160.15;76.82;;;2.40;99.90;;;;;;2603639;54;20026;31
2023/02/27 17:05:18;;;;;;;136.23;68.60;;;2.50;99.90;;;;;;2603465;54;20026;31
2023/02/27 17:07:58;;;;;;;118.97;57.83;;;2.40;99.90;;;;;;2702152;39;20468;31
2023/02/27 17:10:42;;;;;;;92.38;44.00;;;2.40;99.90;;;;;;2622028;46;20026;31
2023/02/27 17:13:36;;;;;;;63.65;30.73;;;2.40;99.90;;;;;;2603113;54;20027;31
2023/02/27 17:16:11;;;;;;;48.05;24.70;;;2.40;99.90;;;;;;2603221;54;20830;31
2023/02/27 17:18:47;;;;;;;37.80;18.75;;;2.30;99.90;;;;;;2603548;54;20777;31
2023/02/27 17:21:22;;;;;;;32.75;18.05;;;2.30;99.90;;;;;;2603491;54;20026;31
2023/02/27 17:24:01;;;;;;;32.78;17.33;;;2.30;99.90;;;;;;2621875;46;20033;31
2023/02/27 17:26:39;;;;;;;42.63;23.10;;;2.30;99.90;;;;;;2603277;54;20031;31
2023/02/27 17:29:15;;;;;;;49.33;23.17;;;2.30;99.90;;;;;;2603352;54;20034;31
2023/02/27 17:31:52;;;;;;;71.47;31.27;;;2.30;99.90;;;;;;2622018;46;20006;31
2023/02/27 17:34:27;;;;;;;81.25;31.20;;;2.30;99.90;;;;;;2603472;54;20027;31
2023/02/27 17:37:07;;;;;;;109.80;42.75;;;2.50;99.90;;;;;;2603424;54;20964;31
2023/02/27 17:39:43;;;;;;;102.07;42.28;;;2.80;99.90;;;;;;2621777;46;20026;31
2023/02/27 17:42:24;;;;;;;70.30;34.35;;;2.90;99.90;;;;;;2603308;54;19934;31
2023/02/27 17:45:00;;;;;;;58.38;28.00;;;2.90;99.90;;;;;;2603482;54;20027;31
2023/02/27 17:47:36;;;;;;;49.10;24.60;;;2.90;99.90;;;;;;2603443;54;20029;31
2023/02/27 17:50:14;;;;;;;47.80;25.08;;;2.80;99.90;;;;;;2622058;46;20034;31
2023/02/27 17:52:50;;;;;;;45.55;23.95;;;2.70;99.90;;;;;;2603357;54;20022;31
2023/02/27 17:55:25;;;;;;;45.13;23.42;;;2.60;99.90;;;;;;2621389;46;20056;31
2023/02/27 17:58:04;;;;;;;37.33;19.57;;;2.50;99.90;;;;;;2621827;46;20048;31
2023/02/27 18:00:41;;;;;;;37.40;20.50;;;2.50;99.90;;;;;;2621713;46;20366;31
2023/02/27 18:03:17;;;;;;;33.78;19.83;;;2.40;99.90;;;;;;2603289;54;20140;31
2023/02/27 18:05:55;;;;;;;36.80;19.10;;;2.30;99.90;;;;;;2603298;54;20884;31
2023/02/27 18:08:30;;;;;;;42.72;20.30;;;2.20;99.90;;;;;;2603235;54;20037;31
2023/02/27 18:11:06;;;;;;;38.63;21.45;;;2.20;99.90;;;;;;2621799;46;20075;31
2023/02/27 18:13:44;;;;;;;50.90;25.77;;;2.10;99.90;;;;;;2603170;54;20096;31
2023/02/27 18:16:20;;;;;;;68.10;32.30;;;2.10;99.90;;;;;;2621794;46;20022;31
2023/02/27 18:18:56;;;;;;;93.75;45.95;;;2.00;99.90;;;;;;2603255;54;20745;31
2023/02/27 18:21:31;;;;;;;113.38;51.55;;;2.00;99.90;;;;;;2603429;54;20825;31
2023/02/27 18:24:06;;;;;;;165.10;63.70;;;2.00;99.90;;;;;;2602977;54;20109;31
2023/02/27 18:26:41;;;;;;;126.80;55.58;;;1.90;99.90;;;;;;2603391;54;20829;31
2023/02/27 18:29:18;;;;;;;141.70;58.53;;;1.80;99.90;;;;;;2621414;46;20034;31
2023/02/27 18:31:54;;;;;;;127.93;56.80;;;1.80;99.90;;;;;;2603192;54;20043;31
2023/02/27 18:34:29;;;;;;;121.10;52.97;;;1.70;99.90;;;;;;2621997;46;20022;31
2023/02/27 18:37:04;;;;;;;106.07;45.97;;;1.60;99.90;;;;;;2620943;46;20894;31
2023/02/27 18:39:41;;;;;;;98.40;47.17;;;1.50;99.90;;;;;;2603343;54;20848;31